Time;durP1;ratioP1;P1;durP2;ratioP2;P2;SDS_P1;SDS_P2;PMS_P1;PMS_P2;Temp;Humidity;BMP_temperature;BMP_pressure;BME280_temperature;BME280_humidity;BME280_pressure;Samples;Min_cycle;Max_cycle;Signal;HPM_P1;HPM_P2
2023/07/27 00:00:59;;;;;;;13.72;6.78;;;;;;;30.42;49.12;99025.59;1774543;81;21359;-80
2023/07/27 00:04:05;;;;;;;11.18;6.15;;;;;;;30.26;49.31;99006.42;1773975;81;21332;-80
2023/07/27 00:07:11;;;;;;;13.00;6.12;;;;;;;30.17;49.63;99004.22;1775401;81;21286;-80
2023/07/27 00:10:23;;;;;;;8.23;6.12;;;;;;;30.17;49.63;99009.03;1775011;81;21327;-80
2023/07/27 00:13:28;;;;;;;9.20;6.53;;;;;;;30.15;49.66;99012.17;1775356;81;21866;-80
2023/07/27 00:16:35;;;;;;;16.05;6.37;;;;;;;30.00;50.12;99011.29;1773932;81;21300;-80
2023/07/27 00:19:40;;;;;;;11.50;6.25;;;;;;;29.93;50.28;99009.59;1774099;81;22723;-80
2023/07/27 00:22:46;;;;;;;9.03;6.03;;;;;;;29.83;50.70;99012.74;1779960;80;21355;-80
2023/07/27 00:25:51;;;;;;;11.10;6.65;;;;;;;30.09;50.15;99012.09;1788472;80;21280;-80
2023/07/27 00:28:57;;;;;;;17.57;7.55;;;;;;;30.03;50.27;99016.27;1788414;80;21293;-80
2023/07/27 00:32:03;;;;;;;15.78;8.43;;;;;;;30.10;50.03;99018.55;1788862;80;21614;-80
2023/07/27 00:35:09;;;;;;;17.35;8.88;;;;;;;29.88;50.52;99010.59;1788450;80;21359;-80
2023/07/27 00:38:16;;;;;;;20.62;8.90;;;;;;;29.82;50.58;99013.91;1788553;80;21843;-80
2023/07/27 00:41:22;;;;;;;18.00;9.33;;;;;;;30.05;50.05;99008.28;1787776;80;22055;-80
2023/07/27 00:44:27;;;;;;;21.25;10.78;;;;;;;29.81;50.44;99006.04;1741883;82;21344;-80
2023/07/27 00:47:32;;;;;;;25.40;11.12;;;;;;;29.97;50.14;99000.68;1788485;80;21295;-80
2023/07/27 00:50:40;;;;;;;25.52;13.40;;;;;;;29.92;50.36;99005.09;1719192;82;21339;-80
2023/07/27 00:53:47;;;;;;;32.40;14.73;;;;;;;29.70;50.80;98999.94;1788647;80;21292;-80
2023/07/27 00:56:53;;;;;;;33.28;16.35;;;;;;;29.74;50.85;98986.84;1788340;80;21326;-80
2023/07/27 01:00:01;;;;;;;35.68;17.10;;;;;;;29.71;50.87;98991.73;1788520;80;22615;-80
2023/07/27 01:03:03;;;;;;;43.28;19.75;;;;;;;29.67;50.97;98992.15;1787942;80;21327;-80
2023/07/27 01:06:10;;;;;;;45.30;22.05;;;;;;;29.62;51.04;98982.47;1787735;80;21320;-80
2023/07/27 01:09:17;;;;;;;42.73;23.18;;;;;;;29.69;50.84;98980.53;1788639;80;21293;-80
2023/07/27 01:12:29;;;;;;;46.98;23.05;;;;;;;29.72;50.70;98968.60;1787358;80;21797;-80
2023/07/27 01:15:37;;;;;;;45.12;22.98;;;;;;;29.59;50.92;98957.77;1742060;82;21882;-80
2023/07/27 01:18:57;;;;;;;33.53;19.42;;;;;;;29.18;51.73;98947.88;1788695;80;21296;-80
2023/07/27 01:22:22;;;;;;;39.50;19.77;;;;;;;29.25;51.58;98949.60;1789573;80;21359;-79
2023/07/27 01:26:06;;;;;;;34.80;18.17;;;;;;;29.36;51.24;98949.25;1744530;82;22622;-79
2023/07/27 01:29:17;;;;;;;36.35;17.15;;;;;;;29.60;50.39;98949.59;1791917;80;21289;-80
2023/07/27 01:32:23;;;;;;;25.90;12.88;;;;;;;29.52;50.64;98954.63;1746606;82;21327;-80
2023/07/27 01:35:28;;;;;;;29.72;14.60;;;;;;;29.65;50.35;98954.22;1791743;80;21659;-80
2023/07/27 01:38:36;;;;;;;24.35;12.25;;;;;;;29.40;50.81;98942.62;1747485;82;21299;-80
2023/07/27 01:41:41;;;;;;;31.62;14.33;;;;;;;29.25;51.06;98942.56;1790401;80;21947;-80
2023/07/27 01:44:47;;;;;;;34.35;15.18;;;;;;;28.85;51.83;98936.86;1747417;82;21875;-80
2023/07/27 01:47:53;;;;;;;31.40;15.90;;;;;;;29.26;50.64;98937.17;1791752;80;21883;-80
2023/07/27 01:51:00;;;;;;;42.67;18.52;;;;;;;28.93;51.45;98941.64;1747288;82;21347;-80
2023/07/27 01:54:06;;;;;;;38.13;16.57;;;;;;;28.95;51.41;98946.41;1791780;80;21292;-80
2023/07/27 01:57:11;;;;;;;42.43;18.77;;;;;;;28.90;51.43;98945.12;1747629;82;21366;-79
2023/07/27 02:00:19;;;;;;;39.00;20.02;;;;;;;28.72;51.78;98946.52;1791924;80;21325;-79
2023/07/27 02:03:24;;;;;;;36.25;17.57;;;;;;;28.48;52.56;98942.77;1746302;82;21319;-79
2023/07/27 02:06:31;;;;;;;37.93;18.62;;;;;;;28.37;52.78;98933.54;1791363;80;21915;-79
2023/07/27 02:09:37;;;;;;;28.12;15.88;;;;;;;28.30;52.90;98930.37;1747574;82;21909;-79
2023/07/27 02:12:46;;;;;;;28.05;15.65;;;;;;;28.24;52.90;98947.39;1791216;80;21295;-79
2023/07/27 02:15:55;;;;;;;27.90;15.23;;;;;;;28.24;52.75;98948.80;1747819;82;21313;-79
2023/07/27 02:19:01;;;;;;;32.17;15.40;;;;;;;27.76;53.73;98965.63;1791803;80;21328;-79
2023/07/27 02:22:06;;;;;;;37.60;13.75;;;;;;;28.06;52.96;98983.61;1746778;82;21339;-79
2023/07/27 02:25:12;;;;;;;27.07;14.87;;;;;;;28.22;52.57;98988.20;1786588;80;21900;-79
2023/07/27 02:28:18;;;;;;;35.15;14.68;;;;;;;28.35;52.16;99000.53;1782593;80;21296;-79
2023/07/27 02:31:24;;;;;;;28.00;15.20;;;;;;;28.03;53.03;99013.76;1791005;80;21304;-79
2023/07/27 02:34:30;;;;;;;34.95;14.13;;;;;;;28.49;51.75;99008.27;1713767;83;22787;-79
2023/07/27 02:37:36;;;;;;;31.42;14.28;;;;;;;28.59;51.56;99013.59;1790110;80;21329;-79
2023/07/27 02:40:44;;;;;;;25.23;13.40;;;;;;;28.59;51.51;99011.36;1713693;83;21319;-79
2023/07/27 02:43:49;;;;;;;29.95;13.53;;;;;;;28.70;51.13;99014.09;1789753;80;21943;-80
2023/07/27 02:46:55;;;;;;;34.10;13.38;;;;;;;28.77;51.13;99009.66;1791021;80;22558;-79
2023/07/27 02:50:02;;;;;;;29.98;13.50;;;;;;;29.03;50.57;99004.69;1790993;80;21305;-80
2023/07/27 02:53:15;;;;;;;28.85;12.88;;;;;;;29.20;50.21;99010.30;1712647;83;21403;-80
2023/07/27 02:56:21;;;;;;;24.80;13.25;;;;;;;29.37;49.87;99011.48;1790948;80;21309;-80
2023/07/27 02:59:27;;;;;;;24.77;12.45;;;;;;;29.44;49.44;99006.16;1791005;80;21301;-80
2023/07/27 03:02:34;;;;;;;27.10;11.68;;;;;;;29.74;48.89;98998.11;1790476;80;21911;-80
2023/07/27 03:05:40;;;;;;;24.52;12.18;;;;;;;29.83;48.88;99001.47;1713673;83;21872;-80
2023/07/27 03:08:47;;;;;;;25.85;12.20;;;;;;;30.21;48.32;99005.20;1789674;80;21324;-80
2023/07/27 03:11:55;;;;;;;29.12;11.38;;;;;;;30.73;47.48;99012.02;1713702;83;21337;-80
2023/07/27 03:15:00;;;;;;;23.92;11.12;;;;;;;30.87;47.33;99003.88;1790979;80;21304;-80
2023/07/27 03:18:07;;;;;;;18.12;10.25;;;;;;;30.67;47.70;99003.45;1791117;80;21831;-80
2023/07/27 03:21:15;;;;;;;21.70;11.40;;;;;;;30.98;47.17;99010.77;1713881;83;21316;-80
2023/07/27 03:24:21;;;;;;;25.72;10.40;;;;;;;31.19;46.84;99014.98;1789984;80;21348;-79
2023/07/27 03:27:28;;;;;;;24.72;9.95;;;;;;;31.35;46.36;99011.00;1794152;79;21327;-79
2023/07/27 03:30:33;;;;;;;24.65;10.60;;;;;;;31.55;45.90;99007.31;1809524;79;21878;-80
2023/07/27 03:33:33;;;;;;;20.50;10.25;;;;;;;31.69;45.68;99003.59;1741533;82;21312;-79
2023/07/27 03:36:40;;;;;;;26.45;10.13;;;;;;;31.80;45.55;99006.21;1787069;80;21332;-79
2023/07/27 03:39:46;;;;;;;23.83;9.45;;;;;;;31.68;46.06;98989.23;1741983;82;21320;-80
2023/07/27 03:42:53;;;;;;;19.98;9.10;;;;;;;31.86;45.97;98982.02;1788488;80;21298;-80
2023/07/27 03:45:53;;;;;;;12.53;8.38;;;;;;;31.94;45.98;98996.03;1788628;80;21297;-79
2023/07/27 03:48:59;;;;;;;15.72;8.15;;;;;;;32.10;45.82;99005.27;1788557;80;21851;-79
2023/07/27 03:52:06;;;;;;;13.55;7.58;;;;;;;32.21;45.90;99011.52;1742008;82;21311;-79
2023/07/27 03:55:12;;;;;;;16.70;7.83;;;;;;;32.22;45.91;99007.51;1760038;80;21860;-79
2023/07/27 03:58:19;;;;;;;14.73;8.28;;;;;;;32.28;45.97;98987.73;1713056;82;21319;-79
2023/07/27 04:01:25;;;;;;;18.80;8.68;;;;;;;32.36;45.75;98980.88;1786926;80;21308;-79
2023/07/27 04:04:30;;;;;;;23.12;10.18;;;;;;;32.39;45.68;98971.73;1788687;80;21958;-79
2023/07/27 04:07:36;;;;;;;14.90;9.63;;;;;;;32.54;45.46;98976.08;1788525;80;21292;-80
2023/07/27 04:10:42;;;;;;;19.62;9.40;;;;;;;32.70;45.31;98980.44;1788832;80;21312;-79
2023/07/27 04:13:47;;;;;;;21.10;9.95;;;;;;;32.93;45.01;98994.92;1788224;80;21324;-80
2023/07/27 04:16:53;;;;;;;18.92;10.38;;;;;;;32.84;45.36;98994.19;1788786;80;21891;-79
2023/07/27 04:20:00;;;;;;;24.00;12.07;;;;;;;32.78;45.40;98984.30;1788480;80;21300;-79
2023/07/27 04:23:06;;;;;;;23.77;12.98;;;;;;;32.83;45.31;98989.13;1741908;82;21316;-80
2023/07/27 04:26:12;;;;;;;24.12;13.20;;;;;;;32.64;45.85;98988.92;1787136;80;21311;-80
2023/07/27 04:29:17;;;;;;;23.47;12.80;;;;;;;33.02;45.26;98984.88;1784648;80;21337;-79
2023/07/27 04:32:23;;;;;;;20.70;12.28;;;;;;;32.88;45.83;98990.06;1713564;83;21308;-79
2023/07/27 04:35:29;;;;;;;21.62;11.93;;;;;;;32.88;46.12;98992.90;1789811;80;21307;-80
2023/07/27 04:38:34;;;;;;;20.82;11.88;;;;;;;33.13;45.84;98988.88;1790874;80;21343;-80
2023/07/27 04:41:40;;;;;;;26.73;12.58;;;;;;;33.24;45.32;98988.59;1789609;80;21305;-80
2023/07/27 04:44:47;;;;;;;24.55;13.00;;;;;;;33.39;45.17;98982.75;1790303;80;21899;-80
2023/07/27 04:47:52;;;;;;;25.68;11.68;;;;;;;33.62;44.91;98983.03;1713763;83;21268;-80
2023/07/27 04:50:58;;;;;;;16.55;10.10;;;;;;;33.93;44.48;98980.03;1791078;80;21856;-80
2023/07/27 04:54:04;;;;;;;16.42;9.90;;;;;;;33.87;44.47;98968.70;1713459;83;21892;-80
2023/07/27 04:57:10;;;;;;;15.28;8.50;;;;;;;34.08;44.23;98986.34;1791043;80;21864;-79
2023/07/27 05:00:17;;;;;;;10.00;7.40;;;;;;;34.47;43.07;98980.27;1791737;78;21304;-80
2023/07/27 05:03:23;;;;;;;15.28;6.60;;;;;;;34.87;42.51;98969.85;1757314;81;21324;-80
2023/07/27 05:06:29;;;;;;;8.15;5.80;;;;;;;34.90;42.10;98970.51;1802291;79;21306;-79
2023/07/27 05:09:35;;;;;;;11.00;5.78;;;;;;;34.59;42.07;98980.77;1801853;79;21370;-80
2023/07/27 05:12:41;;;;;;;9.43;5.17;;;;;;;34.54;42.03;98988.15;1747825;81;21930;-79
2023/07/27 05:15:48;;;;;;;10.48;5.60;;;;;;;34.77;41.74;98981.16;1801691;78;21294;-79
2023/07/27 05:18:53;;;;;;;8.35;5.12;;;;;;;35.05;41.15;98969.66;1802418;79;21311;-80
2023/07/27 05:22:00;;;;;;;8.70;5.08;;;;;;;35.22;40.60;98980.59;1733399;82;21339;-79
2023/07/27 05:25:08;;;;;;;9.55;4.97;;;;;;;35.40;40.03;98980.16;1805289;79;21334;-79
2023/07/27 05:28:13;;;;;;;7.35;4.50;;;;;;;35.80;39.07;98969.20;1733405;82;21335;-79
2023/07/27 05:31:19;;;;;;;8.03;4.90;;;;;;;35.64;38.87;98979.87;1807213;79;21331;-80
2023/07/27 05:34:25;;;;;;;6.78;4.42;;;;;;;35.74;39.02;98974.98;1744252;81;21663;-80
2023/07/27 05:37:30;;;;;;;13.62;5.62;;;;;;;36.08;37.60;98958.16;1772477;81;21288;-80
2023/07/27 05:40:37;;;;;;;10.63;4.83;;;;;;;36.08;37.60;98958.16;1741119;82;21424;-80
2023/07/27 05:43:43;;;;;;;10.72;4.87;;;;;;;35.92;37.66;98951.75;1771719;81;21326;-79
2023/07/27 05:46:50;;;;;;;12.70;4.90;;;;;;;36.24;36.82;98957.44;1739160;82;21371;-79
2023/07/27 05:49:55;;;;;;;8.68;4.55;;;;;;;36.47;37.49;98954.59;1757320;81;21892;-79
2023/07/27 05:53:00;;;;;;;11.05;4.42;;;;;;;36.47;37.49;98954.59;1751900;82;21308;-80
2023/07/27 05:56:06;;;;;;;6.72;4.87;;;;;;;36.55;36.87;98944.11;1749762;82;21911;-79
2023/07/27 05:59:13;;;;;;;7.35;4.50;;;;;;;36.80;36.29;98950.20;1751393;82;22682;-80
2023/07/27 06:02:19;;;;;;;11.28;4.62;;;;;;;36.92;35.86;98943.47;1751117;80;21326;-80
2023/07/27 06:05:25;;;;;;;11.97;5.00;;;;;;;36.60;36.02;98946.63;1751178;82;21344;-80
2023/07/27 06:08:33;;;;;;;7.92;4.60;;;;;;;36.80;36.20;98938.81;1751027;82;21303;-80
2023/07/27 06:11:39;;;;;;;7.60;4.83;;;;;;;36.88;36.11;98927.71;1749484;82;21359;-80
2023/07/27 06:14:46;;;;;;;11.63;5.17;;;;;;;37.02;36.01;98935.66;1752287;80;21506;-80
2023/07/27 06:17:53;;;;;;;6.20;4.65;;;;;;;36.99;36.41;98929.34;1751001;82;21350;-80
2023/07/27 06:20:58;;;;;;;8.30;5.15;;;;;;;37.08;36.09;98944.11;1750294;82;21322;-79
2023/07/27 06:24:05;;;;;;;7.00;4.83;;;;;;;37.18;35.55;98937.73;1743841;81;21339;-80
2023/07/27 06:27:13;;;;;;;6.60;4.37;;;;;;;37.19;35.71;98925.11;1786605;80;21336;-80
2023/07/27 06:30:18;;;;;;;8.23;3.92;;;;;;;37.19;34.90;98925.11;1769593;81;21334;-80
2023/07/27 06:33:24;;;;;;;13.25;4.22;;;;;;;37.10;35.32;98921.13;1808815;78;21265;-80
2023/07/27 06:36:32;;;;;;;4.62;3.50;;;;;;;37.14;34.60;98919.76;1801164;78;21291;-79
2023/07/27 06:39:32;;;;;;;6.50;3.80;;;;;;;37.06;34.75;98930.23;1801514;79;22656;-80
2023/07/27 06:42:37;;;;;;;12.43;4.65;;;;;;;37.34;34.39;98939.75;1785136;79;21907;-80
2023/07/27 06:45:43;;;;;;;13.93;3.60;;;;;;;37.33;34.19;98933.84;1802088;78;21858;-80
2023/07/27 06:48:50;;;;;;;11.93;3.80;;;;;;;37.27;34.00;98941.10;1812815;78;21329;-80
2023/07/27 06:51:56;;;;;;;5.25;3.30;;;;;;;37.63;33.43;98940.10;1804080;78;21308;-80
2023/07/27 06:55:01;;;;;;;13.38;3.12;;;;;;;37.88;33.57;98944.70;1804210;78;21826;-80
2023/07/27 06:58:08;;;;;;;10.98;3.12;;;;;;;38.17;32.26;98934.36;1803619;78;21275;-80
2023/07/27 07:01:14;;;;;;;7.25;3.10;;;;;;;38.30;31.96;98935.73;1801377;79;21873;-80
2023/07/27 07:04:21;;;;;;;9.18;3.15;;;;;;;38.14;31.87;98925.75;1799996;79;21322;-79
2023/07/27 07:07:27;;;;;;;7.17;2.90;;;;;;;38.25;31.75;98930.33;1800792;79;22631;-79
2023/07/27 07:10:32;;;;;;;7.12;3.00;;;;;;;38.05;31.59;98931.79;1801251;78;21874;-80
2023/07/27 07:13:39;;;;;;;8.63;3.40;;;;;;;38.17;32.03;98932.11;1800527;78;21283;-80
2023/07/27 07:16:38;;;;;;;5.33;3.10;;;;;;;38.15;31.25;98925.34;1803943;78;21336;-80
2023/07/27 07:19:33;;;;;;;9.63;3.00;;;;;;;38.09;31.13;98915.52;1799228;79;21303;-80
2023/07/27 07:22:18;;;;;;;6.72;3.33;;;;;;;38.21;31.25;98905.23;1762500;81;21324;-80
2023/07/27 07:25:24;;;;;;;8.40;2.90;;;;;;;38.28;30.48;98895.89;1801156;79;21330;-80
2023/07/27 07:28:30;;;;;;;6.15;3.00;;;;;;;37.99;30.92;98903.41;1752434;81;21317;-80
2023/07/27 07:31:36;;;;;;;4.00;2.80;;;;;;;37.98;30.43;98884.66;1754648;80;22590;-80
2023/07/27 07:34:41;;;;;;;9.63;3.17;;;;;;;37.97;30.21;98889.55;1750164;81;21241;-80
2023/07/27 07:37:48;;;;;;;8.53;3.27;;;;;;;38.10;30.14;98895.74;1756872;81;21894;-79
2023/07/27 07:40:55;;;;;;;5.78;3.15;;;;;;;38.03;30.56;98892.84;1725281;82;21295;-80
2023/07/27 07:44:01;;;;;;;5.92;3.30;;;;;;;38.19;30.28;98907.65;1734659;81;21244;-80
2023/07/27 07:47:07;;;;;;;5.62;3.67;;;;;;;38.26;30.22;98919.14;1741724;81;21343;-80
2023/07/27 07:50:14;;;;;;;6.53;2.72;;;;;;;38.23;30.61;98931.34;1745294;81;21323;-80
2023/07/27 07:53:20;;;;;;;8.85;3.70;;;;;;;38.29;30.35;98922.61;1754506;81;21887;-80
2023/07/27 07:56:28;;;;;;;7.05;3.20;;;;;;;38.13;31.09;98920.66;1740976;81;21745;-80
2023/07/27 07:59:33;;;;;;;11.75;3.45;;;;;;;38.20;31.31;98912.75;1737362;81;21259;-80
2023/07/27 08:02:40;;;;;;;5.55;3.27;;;;;;;38.31;31.34;98905.13;1733074;81;21355;-80
2023/07/27 08:05:49;;;;;;;5.97;3.10;;;;;;;38.29;31.48;98905.48;1754227;81;21283;-80
2023/07/27 08:08:55;;;;;;;5.42;3.42;;;;;;;38.47;31.50;98918.50;1710736;82;21291;-80
2023/07/27 08:12:02;;;;;;;4.80;3.22;;;;;;;38.55;31.64;98923.05;1743355;81;21323;-80
2023/07/27 08:15:07;;;;;;;6.75;3.60;;;;;;;38.65;31.04;98920.05;1721033;82;21212;-80
2023/07/27 08:18:13;;;;;;;11.03;4.20;;;;;;;38.68;31.09;98920.69;1731706;81;21943;-80
2023/07/27 08:21:19;;;;;;;11.55;3.80;;;;;;;38.78;31.06;98918.53;1724755;82;21882;-80
2023/07/27 08:24:24;;;;;;;9.95;3.77;;;;;;;38.92;31.35;98939.23;1726041;81;21946;-80
2023/07/27 08:27:30;;;;;;;7.60;3.98;;;;;;;39.05;31.10;98938.25;1737371;82;21354;-80
2023/07/27 08:30:36;;;;;;;15.43;3.85;;;;;;;39.00;31.12;98949.45;1734101;81;21312;-80
2023/07/27 08:33:45;;;;;;;7.47;3.67;;;;;;;39.26;31.08;98944.73;1734605;81;21402;-80
2023/07/27 08:36:54;;;;;;;11.08;3.83;;;;;;;39.30;31.38;98932.09;1738139;81;21221;-80
2023/07/27 08:40:03;;;;;;;9.00;3.70;;;;;;;39.53;30.31;98910.91;1741707;80;21303;-80
2023/07/27 08:43:13;;;;;;;8.55;3.75;;;;;;;39.62;30.63;98914.20;1737814;81;21364;-80
2023/07/27 08:46:19;;;;;;;5.53;2.98;;;;;;;39.70;30.90;98898.70;1777276;80;21298;-80
2023/07/27 08:49:24;;;;;;;10.90;3.92;;;;;;;39.78;30.27;98905.27;1765462;81;21378;-80
2023/07/27 08:52:31;;;;;;;8.18;3.87;;;;;;;39.45;30.75;98892.09;1777585;80;21343;-81
2023/07/27 08:55:36;;;;;;;6.90;3.27;;;;;;;39.43;30.49;98891.66;1767502;81;21918;-81
2023/07/27 08:58:43;;;;;;;7.30;3.33;;;;;;;39.41;30.67;98876.95;1777716;80;21965;-81
2023/07/27 09:01:49;;;;;;;5.12;3.37;;;;;;;39.56;30.36;98872.28;1762385;81;21327;-81
2023/07/27 09:04:56;;;;;;;10.72;3.30;;;;;;;39.56;30.52;98867.17;1770288;79;21323;-81
2023/07/27 09:08:04;;;;;;;6.12;3.05;;;;;;;39.85;29.52;98873.19;1740515;81;22647;-81
2023/07/27 09:11:14;;;;;;;5.58;3.42;;;;;;;39.46;29.95;98860.21;1695611;82;21833;-81
2023/07/27 09:14:21;;;;;;;9.00;3.65;;;;;;;39.21;30.73;98847.30;1772072;79;21914;-80
2023/07/27 09:17:27;;;;;;;4.47;3.33;;;;;;;38.91;30.93;98836.11;1751642;81;21303;-81
2023/07/27 09:20:33;;;;;;;12.93;3.55;;;;;;;38.85;30.87;98818.55;1764551;80;21280;-80
2023/07/27 09:23:39;;;;;;;10.60;3.30;;;;;;;38.91;31.58;98811.01;1765308;81;21312;-80
2023/07/27 09:26:57;;;;;;;8.23;3.20;;;;;;;38.85;30.57;98814.26;1737246;82;21339;-80
2023/07/27 09:30:08;;;;;;;6.50;2.83;;;;;;;38.97;30.77;98823.70;1746129;79;21355;-80
2023/07/27 09:33:16;;;;;;;10.05;3.12;;;;;;;39.12;29.82;98805.37;1707683;83;21202;-80
2023/07/27 09:36:14;;;;;;;8.08;3.98;;;;;;;39.07;29.37;98790.05;1740256;81;21312;-80
2023/07/27 09:39:07;;;;;;;7.47;3.42;;;;;;;39.21;29.65;98772.95;1749254;81;21324;-80
2023/07/27 09:42:15;;;;;;;6.65;3.72;;;;;;;39.36;29.99;98778.08;1725572;81;21324;-80
2023/07/27 09:45:15;;;;;;;13.18;3.17;;;;;;;39.11;29.53;98782.30;1766460;79;21319;-80
2023/07/27 09:48:20;;;;;;;15.03;4.22;;;;;;;38.97;30.22;98777.98;1733002;82;21906;-80
2023/07/27 09:51:28;;;;;;;7.75;3.55;;;;;;;39.12;30.59;98741.05;1752548;81;21317;-80
2023/07/27 09:54:36;;;;;;;8.85;3.60;;;;;;;38.79;30.27;98724.44;1761694;81;21311;-80
2023/07/27 09:57:42;;;;;;;16.30;3.50;;;;;;;38.91;31.12;98733.23;1744340;81;21311;-80
2023/07/27 10:00:47;;;;;;;7.35;3.33;;;;;;;38.90;30.60;98737.94;1741698;81;21311;-80
2023/07/27 10:04:02;;;;;;;17.45;3.67;;;;;;;39.02;30.45;98750.43;1750931;81;21323;-81
2023/07/27 10:07:00;;;;;;;5.62;3.40;;;;;;;39.06;30.59;98763.51;1798815;79;21304;-81
2023/07/27 10:10:35;;;;;;;6.37;3.58;;;;;;;39.12;29.85;98752.48;1736404;82;21355;-81
2023/07/27 10:13:48;;;;;;;7.65;3.37;;;;;;;39.27;30.10;98757.02;1768874;80;22595;-81
2023/07/27 10:17:14;;;;;;;11.33;3.40;;;;;;;39.60;29.78;98766.45;1733056;82;21930;-80
2023/07/27 10:20:28;;;;;;;7.30;3.30;;;;;;;39.60;29.50;98772.17;1744379;81;21344;-80
2023/07/27 10:23:36;;;;;;;5.92;3.58;;;;;;;39.93;29.27;98767.27;1767535;81;21301;-80
2023/07/27 10:26:56;;;;;;;7.47;3.50;;;;;;;39.93;27.50;98768.70;1745834;81;21323;-80
2023/07/27 10:30:03;;;;;;;6.45;3.17;;;;;;;40.03;27.71;98777.27;1754410;81;21262;-81
2023/07/27 10:33:19;;;;;;;7.05;3.42;;;;;;;40.21;27.84;98790.16;1754178;81;21300;-80
2023/07/27 10:36:25;;;;;;;7.67;3.25;;;;;;;40.41;27.72;98786.83;1723715;81;21582;-80
2023/07/27 10:39:44;;;;;;;11.35;3.77;;;;;;;40.40;26.96;98790.93;1799481;79;21295;-80
2023/07/27 10:42:49;;;;;;;;;;;;;;;40.27;27.57;98792.79;1803373;78;21355;-81
2023/07/27 10:49:18;;;;;;;10.50;3.67;;;;;;;40.41;26.58;98775.38;1801595;78;21118;-81
2023/07/27 10:52:29;;;;;;;5.55;3.17;;;;;;;40.59;27.08;98771.86;1805347;78;21284;-81
2023/07/27 10:55:40;;;;;;;10.80;3.15;;;;;;;40.43;26.75;98776.61;1801371;79;21221;-81
2023/07/27 10:58:47;;;;;;;9.85;3.72;;;;;;;40.59;25.93;98780.45;1806329;78;21322;-81
2023/07/27 11:01:54;;;;;;;7.87;3.27;;;;;;;40.62;25.95;98785.37;1820622;78;21284;-81
2023/07/27 11:05:01;;;;;;;8.30;3.70;;;;;;;40.64;26.08;98785.75;1808636;78;21877;-81
2023/07/27 11:08:10;;;;;;;10.60;3.25;;;;;;;40.70;26.26;98794.14;1834123;78;21312;-81
2023/07/27 11:11:30;;;;;;;14.13;3.72;;;;;;;40.85;26.09;98795.70;1832745;78;21333;-80
2023/07/27 11:14:36;;;;;;;11.28;2.87;;;;;;;41.15;25.43;98798.64;1830590;78;21309;-80
2023/07/27 11:17:42;;;;;;;5.97;2.67;;;;;;;41.41;24.51;98796.44;1800676;79;21299;-80
2023/07/27 11:20:49;;;;;;;7.80;2.77;;;;;;;41.59;23.14;98788.52;1800124;79;21967;-80
2023/07/27 11:23:55;;;;;;;13.25;3.37;;;;;;;41.68;22.80;98781.69;1801125;79;21288;-80
2023/07/27 11:26:54;;;;;;;10.53;3.50;;;;;;;41.75;22.85;98779.39;1802073;79;21291;-80
2023/07/27 11:29:49;;;;;;;9.43;3.10;;;;;;;41.61;23.57;98773.15;1801183;79;21609;-80
2023/07/27 11:33:10;;;;;;;10.88;3.22;;;;;;;42.00;23.49;98772.00;1801360;79;21842;-80
2023/07/27 11:36:12;;;;;;;9.48;3.15;;;;;;;41.78;23.70;98757.87;1801739;79;21314;-80
2023/07/27 11:39:18;;;;;;;5.37;3.02;;;;;;;41.88;23.59;98770.48;1808097;79;21298;-80
2023/07/27 11:42:33;;;;;;;17.67;3.45;;;;;;;41.99;23.08;98768.31;1808215;79;21330;-80
2023/07/27 11:45:39;;;;;;;5.50;2.70;;;;;;;41.75;23.31;98764.41;1788224;79;21338;-80
2023/07/27 11:48:46;;;;;;;6.25;3.00;;;;;;;41.92;23.34;98765.50;1809836;79;21290;-80
2023/07/27 11:51:53;;;;;;;15.75;2.83;;;;;;;41.89;22.95;98763.50;1807486;79;21322;-80
2023/07/27 11:55:01;;;;;;;4.67;2.75;;;;;;;42.03;22.89;98759.67;1809736;79;21311;-80
2023/07/27 11:58:08;;;;;;;9.15;3.70;;;;;;;41.87;23.22;98760.22;1810709;79;21311;-80
2023/07/27 12:01:13;;;;;;;8.38;3.02;;;;;;;41.79;23.33;98765.86;1785709;79;21295;-80
2023/07/27 12:04:19;;;;;;;12.93;3.10;;;;;;;41.66;23.38;98761.22;1785239;79;21303;-79
2023/07/27 12:07:26;;;;;;;12.13;3.70;;;;;;;41.70;23.00;98746.84;1808851;79;21322;-80
2023/07/27 12:10:34;;;;;;;7.53;3.12;;;;;;;41.76;23.42;98750.25;1810038;79;21271;-79
2023/07/27 12:13:41;;;;;;;5.47;2.60;;;;;;;41.73;23.64;98751.09;1809609;79;21311;-80
2023/07/27 12:16:51;;;;;;;;;;;;;;;41.92;23.56;98756.89;1812695;79;21319;-80
2023/07/27 12:19:58;;;;;;;6.87;2.70;;;;;;;41.93;23.27;98751.98;1807615;78;20195;-80
2023/07/27 12:23:07;;;;;;;15.32;3.70;;;;;;;42.27;22.77;98747.75;1807117;79;21872;-80
2023/07/27 12:26:15;;;;;;;7.25;2.92;;;;;;;42.41;22.59;98758.26;1822266;78;21295;-80
2023/07/27 12:29:21;;;;;;;7.55;3.05;;;;;;;42.63;22.93;98758.20;1818991;78;21253;-81
2023/07/27 12:32:27;;;;;;;13.65;3.80;;;;;;;42.75;22.89;98761.95;1807474;79;22577;-80
2023/07/27 12:35:33;;;;;;;9.10;2.92;;;;;;;42.68;22.75;98756.31;1808616;79;21284;-80
2023/07/27 12:38:39;;;;;;;9.00;3.15;;;;;;;42.65;22.64;98749.16;1805650;79;21309;-81
2023/07/27 12:41:44;;;;;;;10.75;2.70;;;;;;;42.76;22.63;98753.52;1805473;79;21344;-80
2023/07/27 12:44:44;;;;;;;12.98;2.92;;;;;;;42.14;23.43;98747.44;1806909;79;22250;-81
2023/07/27 12:47:55;;;;;;;9.60;2.95;;;;;;;42.57;22.21;98753.52;1807772;79;21285;-80
2023/07/27 12:51:00;;;;;;;8.48;3.02;;;;;;;42.51;22.30;98759.56;1808071;79;21285;-80
2023/07/27 12:54:06;;;;;;;8.33;2.95;;;;;;;42.38;22.64;98759.30;1808367;79;21875;-81
2023/07/27 12:57:14;;;;;;;6.92;2.90;;;;;;;42.45;21.81;98760.47;1807829;79;21332;-80
2023/07/27 13:00:23;;;;;;;9.58;3.20;;;;;;;42.36;22.24;98756.05;1807779;79;21329;-81
2023/07/27 13:03:27;;;;;;;7.30;3.17;;;;;;;42.62;21.98;98752.27;1806704;79;21391;-80
2023/07/27 13:06:34;;;;;;;7.70;3.33;;;;;;;42.69;21.62;98752.81;1806309;79;21305;-80
2023/07/27 13:09:40;;;;;;;9.80;3.15;;;;;;;42.69;21.68;98748.50;1806551;79;21301;-81
2023/07/27 13:12:48;;;;;;;7.50;3.15;;;;;;;42.44;22.00;98744.45;1805961;79;21142;-80
2023/07/27 13:15:54;;;;;;;5.30;2.70;;;;;;;42.36;22.17;98745.99;1807763;79;21360;-80
2023/07/27 13:19:00;;;;;;;8.45;3.37;;;;;;;42.75;21.72;98751.08;1807638;79;21297;-81
2023/07/27 13:22:06;;;;;;;17.05;4.47;;;;;;;42.62;21.83;98753.70;1807124;79;21365;-80
2023/07/27 13:25:14;;;;;;;10.98;3.87;;;;;;;42.46;21.76;98754.91;1807419;79;21328;-80
2023/07/27 13:28:20;;;;;;;11.65;4.05;;;;;;;42.12;22.17;98755.06;1807551;79;21300;-80
2023/07/27 13:31:26;;;;;;;15.80;3.70;;;;;;;42.06;22.21;98749.56;1808079;79;21324;-80
2023/07/27 13:34:33;;;;;;;12.88;4.33;;;;;;;41.66;22.72;98754.04;1807708;79;21306;-80
2023/07/27 13:37:39;;;;;;;12.18;4.35;;;;;;;41.25;22.92;98746.13;1805827;79;21884;-80
2023/07/27 13:40:46;;;;;;;14.05;4.60;;;;;;;41.07;23.46;98755.47;1807563;79;21329;-80
2023/07/27 13:43:54;;;;;;;14.15;4.70;;;;;;;40.90;23.65;98757.19;1806315;79;21301;-80
2023/07/27 13:46:59;;;;;;;12.93;5.40;;;;;;;40.56;24.29;98755.48;1808796;79;21875;-80
2023/07/27 13:50:04;;;;;;;14.75;5.40;;;;;;;40.41;25.18;98766.16;1808107;79;21309;-80
2023/07/27 13:53:12;;;;;;;18.12;6.10;;;;;;;40.33;25.56;98769.68;1807121;79;21360;-80
2023/07/27 13:56:19;;;;;;;20.88;5.80;;;;;;;40.13;26.00;98770.53;1806731;79;21293;-80
2023/07/27 13:59:26;;;;;;;15.58;6.70;;;;;;;39.99;26.72;98759.89;1808032;79;21293;-80
2023/07/27 14:02:31;;;;;;;13.98;6.03;;;;;;;39.88;26.99;98758.48;1807665;79;21899;-80
2023/07/27 14:05:38;;;;;;;14.78;5.80;;;;;;;39.76;27.31;98747.45;1808046;79;21324;-80
2023/07/27 14:08:44;;;;;;;21.00;7.58;;;;;;;39.66;27.57;98744.80;1807198;79;21324;-80
2023/07/27 14:11:50;;;;;;;12.50;6.35;;;;;;;39.14;28.31;98735.73;1808061;79;21293;-80
2023/07/27 14:14:56;;;;;;;16.42;7.30;;;;;;;39.03;28.47;98737.77;1808004;79;21341;-80
2023/07/27 14:18:01;;;;;;;15.53;6.53;;;;;;;38.86;28.70;98736.48;1808065;79;21291;-80
2023/07/27 14:21:06;;;;;;;15.90;6.28;;;;;;;38.61;28.96;98740.67;1808627;79;21332;-80
2023/07/27 14:24:12;;;;;;;29.42;5.90;;;;;;;38.51;28.84;98746.55;1806821;79;21356;-80
2023/07/27 14:27:12;;;;;;;19.23;7.85;;;;;;;38.50;28.83;98734.93;1808187;79;21868;-80
2023/07/27 14:30:18;;;;;;;20.05;6.10;;;;;;;38.56;28.63;98728.21;1807997;79;21297;-80
2023/07/27 14:33:24;;;;;;;14.93;5.67;;;;;;;38.58;28.74;98735.17;1807486;79;21328;-80